createdAt,value
2023-03-22T00:03:00.744Z,67.23
2023-03-22T00:06:03.670Z,67.27
2023-03-22T00:09:06.054Z,66.65
2023-03-22T00:12:08.296Z,68.14
2023-03-22T00:15:11.376Z,68.56
2023-03-22T00:18:14.605Z,67.99
2023-03-22T00:21:17.585Z,69.10
2023-03-22T00:24:21.278Z,68.24
2023-03-22T00:27:23.566Z,67.75
2023-03-22T00:30:25.953Z,68.46
2023-03-22T00:33:32.260Z,69.11
2023-03-22T00:36:34.580Z,68.97
2023-03-22T00:39:36.838Z,68.78
2023-03-22T00:42:41.213Z,69.16
2023-03-22T00:45:43.778Z,70.35
2023-03-22T00:48:46.721Z,71.44
2023-03-22T00:51:49.282Z,71.39
2023-03-22T00:54:51.932Z,71.29
2023-03-22T00:57:54.953Z,72.10
2023-03-22T01:00:57.282Z,73.03
2023-03-22T01:03:59.894Z,72.96
2023-03-22T01:07:03.842Z,73.04
2023-03-22T01:10:06.876Z,73.50
2023-03-22T01:13:11.418Z,72.30
2023-03-22T01:16:13.810Z,73.74
2023-03-22T01:19:16.210Z,73.69
2023-03-22T01:22:18.629Z,73.84
2023-03-22T01:25:21.100Z,71.96
2023-03-22T01:28:25.249Z,72.72
2023-03-22T01:31:29.169Z,73.35
2023-03-22T01:34:31.932Z,73.96
2023-03-22T01:37:34.666Z,73.33
2023-03-22T01:40:38.610Z,72.31
2023-03-22T01:43:43.104Z,72.67
2023-03-22T01:46:47.962Z,74.78
2023-03-22T01:49:50.340Z,76.18
2023-03-22T01:52:54.699Z,75.95
2023-03-22T01:56:01.920Z,77.75
2023-03-22T01:59:11.140Z,77.93
2023-03-22T02:02:33.897Z,77.39
2023-03-22T02:05:48.032Z,77.33
2023-03-22T02:08:53.066Z,77.06
2023-03-22T02:12:24.477Z,77.57
2023-03-22T02:15:38.615Z,78.57
2023-03-22T02:19:30.726Z,77.85
2023-03-22T02:22:39.666Z,77.20
2023-03-22T02:25:57.222Z,77.92
2023-03-22T02:29:23.030Z,78.31
2023-03-22T02:32:51.177Z,78.28
2023-03-22T02:36:32.633Z,76.18
2023-03-22T02:40:02.789Z,76.74
2023-03-22T02:43:56.524Z,76.75
2023-03-22T02:47:14.287Z,77.04
2023-03-22T02:50:31.910Z,76.80
2023-03-22T02:53:47.914Z,76.97
2023-03-22T02:57:00.433Z,75.39
2023-03-22T03:00:16.209Z,74.84
2023-03-22T03:03:20.995Z,74.57
2023-03-22T03:06:28.978Z,74.71
2023-03-22T03:09:33.232Z,75.27
2023-03-22T03:12:35.973Z,74.01
2023-03-22T03:15:42.618Z,73.86
2023-03-22T03:19:00.679Z,73.75
2023-03-22T03:22:13.939Z,74.45
2023-03-22T03:25:43.556Z,74.03
2023-03-22T03:28:53.162Z,77.15
2023-03-22T03:32:10.514Z,79.97
2023-03-22T03:35:25.567Z,80.15
2023-03-22T03:38:31.505Z,79.60
2023-03-22T03:41:35.099Z,79.14
2023-03-22T03:44:38.986Z,81.04
2023-03-22T03:47:44.644Z,81.58
2023-03-22T03:50:50.983Z,81.28
2023-03-22T03:53:53.705Z,81.39
2023-03-22T03:56:57.697Z,80.72
2023-03-22T04:00:00.226Z,80.24
2023-03-22T04:03:21.498Z,80.64
2023-03-22T04:06:46.460Z,81.23
2023-03-22T04:09:53.142Z,81.36
2023-03-22T04:13:00.433Z,80.02
2023-03-22T04:16:03.072Z,81.14
2023-03-22T04:19:09.536Z,81.09
2023-03-22T04:22:18.647Z,80.61
2023-03-22T04:25:22.997Z,79.28
2023-03-22T04:28:37.143Z,79.94
2023-03-22T04:31:39.552Z,79.44
2023-03-22T04:34:56.360Z,78.89
2023-03-22T04:38:00.896Z,80.18
2023-03-22T04:41:05.579Z,79.98
2023-03-22T04:44:15.982Z,81.06
2023-03-22T04:47:24.246Z,80.75
2023-03-22T04:50:28.230Z,80.26
2023-03-22T04:53:38.744Z,79.45
2023-03-22T04:56:42.064Z,80.16
2023-03-22T04:59:44.623Z,79.63
2023-03-22T05:02:47.043Z,80.19
2023-03-22T05:05:59.400Z,79.58
2023-03-22T05:09:11.020Z,78.26
2023-03-22T05:12:13.727Z,78.30
2023-03-22T05:15:28.846Z,77.96
2023-03-22T05:18:32.866Z,78.14
2023-03-22T05:21:37.076Z,78.07
2023-03-22T05:24:40.849Z,75.77
2023-03-22T05:27:50.365Z,72.68
2023-03-22T05:31:28.656Z,71.23
2023-03-22T05:34:37.131Z,70.04
2023-03-22T05:37:53.336Z,68.63
2023-03-22T05:40:56.993Z,68.29
2023-03-22T05:44:00.452Z,66.07
2023-03-22T05:47:04.941Z,65.01
2023-03-22T05:50:27.693Z,63.94
2023-03-22T05:53:31.903Z,64.98
2023-03-22T05:56:44.326Z,65.35
2023-03-22T05:59:46.728Z,63.40
2023-03-22T06:02:56.803Z,61.76
2023-03-22T06:05:59.937Z,62.77
2023-03-22T06:09:18.201Z,62.81
2023-03-22T06:12:27.202Z,62.51
2023-03-22T06:15:50.067Z,63.60
2023-03-22T06:18:56.059Z,62.34
2023-03-22T06:21:58.396Z,59.90
2023-03-22T06:25:02.339Z,59.15
2023-03-22T06:28:12.423Z,56.61
2023-03-22T06:31:21.941Z,58.67
2023-03-22T06:34:29.125Z,57.38
2023-03-22T06:37:31.553Z,55.27
2023-03-22T06:40:35.846Z,57.40
2023-03-22T06:43:38.242Z,57.99
2023-03-22T06:46:57.268Z,54.80
2023-03-22T06:50:34.194Z,54.24
2023-03-22T06:53:41.282Z,54.80
2023-03-22T06:56:43.647Z,54.93
2023-03-22T06:59:46.477Z,55.01
2023-03-22T07:02:50.863Z,55.53
2023-03-22T07:06:10.627Z,55.51
2023-03-22T07:09:18.304Z,57.59
2023-03-22T07:12:23.330Z,57.68
2023-03-22T07:15:27.398Z,57.10
2023-03-22T07:18:37.817Z,57.22
2023-03-22T07:21:40.457Z,57.13
2023-03-22T07:24:56.180Z,57.22
2023-03-22T07:28:01.145Z,56.64
2023-03-22T07:31:07.776Z,54.96
2023-03-22T07:34:20.792Z,54.34
2023-03-22T07:37:37.165Z,53.87
2023-03-22T07:40:44.864Z,52.86
2023-03-22T07:43:56.666Z,52.50
2023-03-22T07:47:04.713Z,51.81
2023-03-22T07:50:21.696Z,52.71
2023-03-22T07:53:29.226Z,51.66
2023-03-22T07:56:32.761Z,51.98
2023-03-22T07:59:35.547Z,52.24
2023-03-22T08:02:39.018Z,51.47
2023-03-22T08:05:42.927Z,50.03
2023-03-22T08:08:48.553Z,50.57
2023-03-22T08:11:51.029Z,49.33
2023-03-22T08:14:53.443Z,51.40
2023-03-22T08:18:01.065Z,49.46
2023-03-22T08:21:08.820Z,48.96
2023-03-22T08:24:14.317Z,49.00
2023-03-22T08:27:27.534Z,49.52
2023-03-22T08:30:37.449Z,49.21
2023-03-22T08:33:40.058Z,48.89
2023-03-22T08:36:42.364Z,48.71
2023-03-22T08:39:45.393Z,48.69
2023-03-22T08:42:57.523Z,48.73
2023-03-22T08:46:00.497Z,48.33
2023-03-22T08:49:03.653Z,48.38
2023-03-22T08:52:13.748Z,49.05
2023-03-22T08:55:36.252Z,50.36
2023-03-22T08:58:46.846Z,49.99
2023-03-22T09:02:09.475Z,48.51
2023-03-22T09:05:13.709Z,46.84
2023-03-22T09:08:19.461Z,46.01
2023-03-22T09:11:24.497Z,45.84
2023-03-22T09:14:26.836Z,46.03
2023-03-22T09:17:31.150Z,46.58
2023-03-22T09:20:35.193Z,46.33
2023-03-22T09:23:48.115Z,45.50
2023-03-22T09:27:03.273Z,45.91
2023-03-22T09:30:12.342Z,45.92
2023-03-22T09:33:16.053Z,45.18
2023-03-22T09:36:29.521Z,45.91
2023-03-22T09:39:32.290Z,45.59
2023-03-22T09:42:44.210Z,47.08
2023-03-22T09:45:51.406Z,46.53
2023-03-22T09:48:53.994Z,47.23
2023-03-22T09:51:56.804Z,45.55
2023-03-22T09:54:59.615Z,47.03
2023-03-22T09:58:24.201Z,45.06
2023-03-22T10:01:57.523Z,46.88
2023-03-22T10:05:05.928Z,45.40
2023-03-22T10:08:36.821Z,49.27
2023-03-22T10:11:46.379Z,43.34
2023-03-22T10:14:57.687Z,39.81
2023-03-22T10:18:03.707Z,38.69
2023-03-22T10:21:12.368Z,37.77
2023-03-22T10:24:27.966Z,37.39
2023-03-22T10:27:33.170Z,37.60
2023-03-22T10:30:40.747Z,39.39
2023-03-22T10:33:56.251Z,37.87
2023-03-22T10:37:04.059Z,38.21
2023-03-22T10:40:07.895Z,40.84
2023-03-22T10:43:38.049Z,40.18
2023-03-22T10:46:44.959Z,40.52
2023-03-22T10:49:55.193Z,42.63
2023-03-22T10:53:28.545Z,42.14
2023-03-22T10:56:31.067Z,39.63
2023-03-22T10:59:47.651Z,44.34
2023-03-22T11:02:58.602Z,46.67
2023-03-22T11:06:13.575Z,46.25
2023-03-22T11:09:18.664Z,45.41
2023-03-22T11:12:21.028Z,48.03
2023-03-22T11:15:27.993Z,47.83
2023-03-22T11:18:32.551Z,47.04
2023-03-22T11:21:35.140Z,47.44
2023-03-22T11:24:37.477Z,45.35
2023-03-22T11:27:51.001Z,44.47
2023-03-22T11:30:58.965Z,46.76
2023-03-22T11:34:02.306Z,45.00
2023-03-22T11:37:08.218Z,46.34
2023-03-22T11:40:17.946Z,46.54
2023-03-22T11:43:26.877Z,44.94
2023-03-22T11:46:31.072Z,44.53
2023-03-22T11:49:48.764Z,43.36
2023-03-22T11:52:51.221Z,44.21
2023-03-22T11:55:57.729Z,45.15
2023-03-22T11:59:15.443Z,42.66
2023-03-22T12:02:30.260Z,41.93
2023-03-22T12:05:37.660Z,41.57
2023-03-22T12:08:45.078Z,43.87
2023-03-22T12:11:51.257Z,44.68
2023-03-22T12:15:19.463Z,42.86
2023-03-22T12:18:45.929Z,41.35
2023-03-22T12:21:50.094Z,44.46
2023-03-22T12:24:52.597Z,45.06
2023-03-22T12:27:59.393Z,43.68
2023-03-22T12:31:03.790Z,43.33
2023-03-22T12:34:10.449Z,39.81
2023-03-22T12:37:20.896Z,41.62
2023-03-22T12:40:28.423Z,41.75
2023-03-22T12:43:48.700Z,42.48
2023-03-22T12:47:12.486Z,43.35
2023-03-22T12:50:20.038Z,43.77
2023-03-22T12:53:26.958Z,42.84
2023-03-22T12:56:38.838Z,43.54
2023-03-22T12:59:45.354Z,43.92
2023-03-22T13:03:02.255Z,43.03
2023-03-22T13:06:26.932Z,42.33
2023-03-22T13:09:47.694Z,40.95
2023-03-22T13:13:08.751Z,39.69
2023-03-22T13:16:11.165Z,40.16
2023-03-22T13:19:29.959Z,40.08
2023-03-22T13:22:38.297Z,38.43
2023-03-22T13:26:01.754Z,37.59
2023-03-22T13:29:15.607Z,37.16
2023-03-22T13:32:33.542Z,37.35
2023-03-22T13:35:44.353Z,38.07
2023-03-22T13:38:54.860Z,37.71
2023-03-22T13:42:20.853Z,37.73
2023-03-22T13:45:33.447Z,37.17
2023-03-22T13:48:50.336Z,37.67
2023-03-22T13:51:53.153Z,37.47
2023-03-22T13:54:57.665Z,36.12
2023-03-22T13:58:01.824Z,36.38
2023-03-22T14:01:12.687Z,36.76
2023-03-22T14:04:22.823Z,36.49
2023-03-22T14:07:41.768Z,36.26
2023-03-22T14:10:49.756Z,36.52
2023-03-22T14:14:07.881Z,36.91
2023-03-22T14:17:20.617Z,37.53
2023-03-22T14:20:27.184Z,38.00
